sensor_id;sensor_type;location;lat;lon;timestamp;temperature;humidity
34640;DHT22;22600;48.186;11.526;2023-05-16T00:00:55;23.10;51.40
34640;DHT22;22600;48.186;11.526;2023-05-16T00:03:22;23.10;51.30
34640;DHT22;22600;48.186;11.526;2023-05-16T00:05:48;23.10;51.40
34640;DHT22;22600;48.186;11.526;2023-05-16T00:08:14;23.10;51.30
34640;DHT22;22600;48.186;11.526;2023-05-16T00:10:40;23.10;51.30
34640;DHT22;22600;48.186;11.526;2023-05-16T00:13:05;23.10;51.30
34640;DHT22;22600;48.186;11.526;2023-05-16T00:15:31;23.10;51.30
34640;DHT22;22600;48.186;11.526;2023-05-16T00:17:57;23.10;51.30
34640;DHT22;22600;48.186;11.526;2023-05-16T00:20:26;23.10;51.20
34640;DHT22;22600;48.186;11.526;2023-05-16T00:22:52;23.10;51.20
34640;DHT22;22600;48.186;11.526;2023-05-16T00:25:18;23.00;51.20
34640;DHT22;22600;48.186;11.526;2023-05-16T00:27:43;23.10;51.20
34640;DHT22;22600;48.186;11.526;2023-05-16T00:30:09;23.10;51.20
34640;DHT22;22600;48.186;11.526;2023-05-16T00:32:35;23.10;51.10
34640;DHT22;22600;48.186;11.526;2023-05-16T00:35:00;23.00;51.10
34640;DHT22;22600;48.186;11.526;2023-05-16T00:37:26;23.10;51.20
34640;DHT22;22600;48.186;11.526;2023-05-16T00:39:51;23.10;51.20
34640;DHT22;22600;48.186;11.526;2023-05-16T00:42:20;23.00;51.20
34640;DHT22;22600;48.186;11.526;2023-05-16T00:44:46;23.10;51.30
34640;DHT22;22600;48.186;11.526;2023-05-16T00:47:11;23.10;51.30
34640;DHT22;22600;48.186;11.526;2023-05-16T00:49:37;25.90;52.80
34640;DHT22;22600;48.186;11.526;2023-05-16T00:52:02;23.00;51.20
34640;DHT22;22600;48.186;11.526;2023-05-16T00:54:28;23.10;51.30
34640;DHT22;22600;48.186;11.526;2023-05-16T00:56:54;23.00;51.20
34640;DHT22;22600;48.186;11.526;2023-05-16T00:59:21;23.10;51.20
34640;DHT22;22600;48.186;11.526;2023-05-16T01:01:46;23.00;51.10
34640;DHT22;22600;48.186;11.526;2023-05-16T01:04:12;23.00;51.10
34640;DHT22;22600;48.186;11.526;2023-05-16T01:06:38;23.00;51.20
34640;DHT22;22600;48.186;11.526;2023-05-16T01:09:04;23.10;51.20
34640;DHT22;22600;48.186;11.526;2023-05-16T01:11:32;23.10;51.20
34640;DHT22;22600;48.186;11.526;2023-05-16T01:14:12;23.10;51.20
34640;DHT22;22600;48.186;11.526;2023-05-16T01:16:53;23.10;51.10
34640;DHT22;22600;48.186;11.526;2023-05-16T01:22:28;23.00;51.10
34640;DHT22;22600;48.186;11.526;2023-05-16T01:27:26;23.00;51.10
34640;DHT22;22600;48.186;11.526;2023-05-16T01:29:54;23.00;51.10
34640;DHT22;22600;48.186;11.526;2023-05-16T01:32:20;23.10;51.20
34640;DHT22;22600;48.186;11.526;2023-05-16T01:34:47;23.00;51.10
34640;DHT22;22600;48.186;11.526;2023-05-16T01:37:16;23.10;51.20
34640;DHT22;22600;48.186;11.526;2023-05-16T01:42:20;23.00;51.10
34640;DHT22;22600;48.186;11.526;2023-05-16T01:47:31;23.00;51.10
34640;DHT22;22600;48.186;11.526;2023-05-16T01:52:43;23.00;51.00
34640;DHT22;22600;48.186;11.526;2023-05-16T01:55:10;23.00;51.00
34640;DHT22;22600;48.186;11.526;2023-05-16T01:57:39;22.30;50.60
34640;DHT22;22600;48.186;11.526;2023-05-16T02:00:05;23.00;51.00
34640;DHT22;22600;48.186;11.526;2023-05-16T02:02:31;23.00;50.90
34640;DHT22;22600;48.186;11.526;2023-05-16T02:04:56;23.00;50.90
34640;DHT22;22600;48.186;11.526;2023-05-16T02:07:22;23.10;51.00
34640;DHT22;22600;48.186;11.526;2023-05-16T02:09:47;23.60;51.40
34640;DHT22;22600;48.186;11.526;2023-05-16T02:12:13;23.00;51.10
34640;DHT22;22600;48.186;11.526;2023-05-16T02:14:38;23.10;51.20
34640;DHT22;22600;48.186;11.526;2023-05-16T02:17:04;23.00;51.10
34640;DHT22;22600;48.186;11.526;2023-05-16T02:19:30;23.00;51.20
34640;DHT22;22600;48.186;11.526;2023-05-16T02:21:55;23.00;51.20
34640;DHT22;22600;48.186;11.526;2023-05-16T02:24:21;23.00;51.20
34640;DHT22;22600;48.186;11.526;2023-05-16T02:26:46;24.70;52.00
34640;DHT22;22600;48.186;11.526;2023-05-16T02:29:12;23.00;51.10
34640;DHT22;22600;48.186;11.526;2023-05-16T02:31:37;23.00;51.20
34640;DHT22;22600;48.186;11.526;2023-05-16T02:34:03;23.00;51.10
34640;DHT22;22600;48.186;11.526;2023-05-16T02:36:28;23.00;51.10
34640;DHT22;22600;48.186;11.526;2023-05-16T02:38:54;22.90;51.00
34640;DHT22;22600;48.186;11.526;2023-05-16T02:41:19;23.00;51.10
34640;DHT22;22600;48.186;11.526;2023-05-16T02:43:46;23.70;51.50
34640;DHT22;22600;48.186;11.526;2023-05-16T02:48:46;23.00;51.10
34640;DHT22;22600;48.186;11.526;2023-05-16T02:51:12;23.00;51.10
34640;DHT22;22600;48.186;11.526;2023-05-16T02:53:37;23.00;51.10
34640;DHT22;22600;48.186;11.526;2023-05-16T02:56:03;23.00;51.00
34640;DHT22;22600;48.186;11.526;2023-05-16T02:58:31;23.00;51.00
34640;DHT22;22600;48.186;11.526;2023-05-16T03:00:56;23.00;51.00
34640;DHT22;22600;48.186;11.526;2023-05-16T03:03:22;23.00;50.90
34640;DHT22;22600;48.186;11.526;2023-05-16T03:05:48;23.00;50.90
34640;DHT22;22600;48.186;11.526;2023-05-16T03:08:14;23.00;51.50
34640;DHT22;22600;48.186;11.526;2023-05-16T03:10:39;23.00;50.90
34640;DHT22;22600;48.186;11.526;2023-05-16T03:13:04;23.00;50.90
34640;DHT22;22600;48.186;11.526;2023-05-16T03:15:30;23.00;50.90
34640;DHT22;22600;48.186;11.526;2023-05-16T03:17:55;22.90;50.90
34640;DHT22;22600;48.186;11.526;2023-05-16T03:20:21;23.00;50.90
34640;DHT22;22600;48.186;11.526;2023-05-16T03:22:47;22.90;50.80
34640;DHT22;22600;48.186;11.526;2023-05-16T03:25:12;23.00;50.80
34640;DHT22;22600;48.186;11.526;2023-05-16T03:27:37;23.00;50.80
34640;DHT22;22600;48.186;11.526;2023-05-16T03:30:03;22.90;50.50
34640;DHT22;22600;48.186;11.526;2023-05-16T03:32:29;22.90;50.20
34640;DHT22;22600;48.186;11.526;2023-05-16T03:34:54;23.00;50.10
34640;DHT22;22600;48.186;11.526;2023-05-16T03:37:20;22.90;50.00
34640;DHT22;22600;48.186;11.526;2023-05-16T03:39:45;22.90;49.90
34640;DHT22;22600;48.186;11.526;2023-05-16T03:42:11;23.00;49.80
34640;DHT22;22600;48.186;11.526;2023-05-16T03:44:36;23.00;49.80
34640;DHT22;22600;48.186;11.526;2023-05-16T03:47:02;22.90;49.80
34640;DHT22;22600;48.186;11.526;2023-05-16T03:49:28;22.90;49.80
34640;DHT22;22600;48.186;11.526;2023-05-16T03:51:53;23.00;49.90
34640;DHT22;22600;48.186;11.526;2023-05-16T03:54:18;23.00;49.90
34640;DHT22;22600;48.186;11.526;2023-05-16T03:56:44;23.10;50.00
34640;DHT22;22600;48.186;11.526;2023-05-16T03:59:09;22.90;49.80
34640;DHT22;22600;48.186;11.526;2023-05-16T04:01:35;22.90;49.80
34640;DHT22;22600;48.186;11.526;2023-05-16T04:04:00;22.90;49.80
34640;DHT22;22600;48.186;11.526;2023-05-16T04:06:26;22.90;49.80
34640;DHT22;22600;48.186;11.526;2023-05-16T04:08:51;23.30;50.00
34640;DHT22;22600;48.186;11.526;2023-05-16T04:11:17;22.90;49.80
34640;DHT22;22600;48.186;11.526;2023-05-16T04:13:42;22.90;49.80
34640;DHT22;22600;48.186;11.526;2023-05-16T04:16:07;22.90;49.80
34640;DHT22;22600;48.186;11.526;2023-05-16T04:18:33;22.90;49.80
34640;DHT22;22600;48.186;11.526;2023-05-16T04:20:58;22.90;49.80
34640;DHT22;22600;48.186;11.526;2023-05-16T04:23:24;22.90;49.90
34640;DHT22;22600;48.186;11.526;2023-05-16T04:25:49;22.90;49.80
34640;DHT22;22600;48.186;11.526;2023-05-16T04:28:15;22.90;49.90
34640;DHT22;22600;48.186;11.526;2023-05-16T04:30:40;22.90;49.80
34640;DHT22;22600;48.186;11.526;2023-05-16T04:33:06;22.90;49.80
34640;DHT22;22600;48.186;11.526;2023-05-16T04:35:31;22.90;49.80
34640;DHT22;22600;48.186;11.526;2023-05-16T04:37:57;22.90;49.80
34640;DHT22;22600;48.186;11.526;2023-05-16T04:40:23;22.90;49.80
34640;DHT22;22600;48.186;11.526;2023-05-16T04:42:49;22.90;49.90
34640;DHT22;22600;48.186;11.526;2023-05-16T04:45:15;22.90;49.80
34640;DHT22;22600;48.186;11.526;2023-05-16T04:47:41;22.90;49.90
34640;DHT22;22600;48.186;11.526;2023-05-16T04:50:06;22.90;49.90
34640;DHT22;22600;48.186;11.526;2023-05-16T04:52:33;22.90;49.80
34640;DHT22;22600;48.186;11.526;2023-05-16T04:54:58;22.90;49.90
34640;DHT22;22600;48.186;11.526;2023-05-16T04:57:24;22.90;49.80
34640;DHT22;22600;48.186;11.526;2023-05-16T04:59:50;23.30;50.00
34640;DHT22;22600;48.186;11.526;2023-05-16T05:02:15;22.90;49.80
34640;DHT22;22600;48.186;11.526;2023-05-16T05:04:41;22.90;49.90
34640;DHT22;22600;48.186;11.526;2023-05-16T05:07:07;22.90;49.80
34640;DHT22;22600;48.186;11.526;2023-05-16T05:09:32;22.90;49.80
34640;DHT22;22600;48.186;11.526;2023-05-16T05:11:58;22.90;49.80
34640;DHT22;22600;48.186;11.526;2023-05-16T05:14:23;22.90;49.80
34640;DHT22;22600;48.186;11.526;2023-05-16T05:16:49;26.20;51.60
34640;DHT22;22600;48.186;11.526;2023-05-16T05:19:14;22.90;49.80
34640;DHT22;22600;48.186;11.526;2023-05-16T05:21:40;22.90;49.80
34640;DHT22;22600;48.186;11.526;2023-05-16T05:24:05;22.90;49.80
34640;DHT22;22600;48.186;11.526;2023-05-16T05:26:31;22.90;49.90
34640;DHT22;22600;48.186;11.526;2023-05-16T05:28:56;22.90;49.90
34640;DHT22;22600;48.186;11.526;2023-05-16T05:31:21;22.90;49.90
34640;DHT22;22600;48.186;11.526;2023-05-16T05:33:47;22.90;49.80
34640;DHT22;22600;48.186;11.526;2023-05-16T05:36:13;23.00;49.90
34640;DHT22;22600;48.186;11.526;2023-05-16T05:38:38;22.90;49.80
34640;DHT22;22600;48.186;11.526;2023-05-16T05:41:04;22.90;49.90
34640;DHT22;22600;48.186;11.526;2023-05-16T05:43:29;22.90;49.80
34640;DHT22;22600;48.186;11.526;2023-05-16T05:45:55;22.90;49.90
34640;DHT22;22600;48.186;11.526;2023-05-16T05:48:20;21.30;49.10
34640;DHT22;22600;48.186;11.526;2023-05-16T05:50:46;22.90;49.80
34640;DHT22;22600;48.186;11.526;2023-05-16T05:53:11;22.90;49.80
34640;DHT22;22600;48.186;11.526;2023-05-16T05:55:37;22.90;49.80
34640;DHT22;22600;48.186;11.526;2023-05-16T05:58:02;22.90;49.80
34640;DHT22;22600;48.186;11.526;2023-05-16T06:00:28;22.90;49.90
34640;DHT22;22600;48.186;11.526;2023-05-16T06:02:53;22.90;49.90
34640;DHT22;22600;48.186;11.526;2023-05-16T06:05:19;22.90;49.90
34640;DHT22;22600;48.186;11.526;2023-05-16T06:07:44;22.90;49.90
34640;DHT22;22600;48.186;11.526;2023-05-16T06:10:10;22.90;49.90
34640;DHT22;22600;48.186;11.526;2023-05-16T06:12:35;22.90;49.90
34640;DHT22;22600;48.186;11.526;2023-05-16T06:15:01;22.90;49.90
34640;DHT22;22600;48.186;11.526;2023-05-16T06:17:26;22.90;49.90
34640;DHT22;22600;48.186;11.526;2023-05-16T06:19:52;22.90;49.90
34640;DHT22;22600;48.186;11.526;2023-05-16T06:22:17;22.90;49.90
34640;DHT22;22600;48.186;11.526;2023-05-16T06:24:43;22.90;49.80
34640;DHT22;22600;48.186;11.526;2023-05-16T06:27:08;22.90;49.80
34640;DHT22;22600;48.186;11.526;2023-05-16T06:29:34;22.90;49.80
34640;DHT22;22600;48.186;11.526;2023-05-16T06:32:00;22.90;49.80
34640;DHT22;22600;48.186;11.526;2023-05-16T06:34:25;22.90;49.90
34640;DHT22;22600;48.186;11.526;2023-05-16T06:36:55;22.90;49.90
34640;DHT22;22600;48.186;11.526;2023-05-16T06:39:20;22.90;49.80
34640;DHT22;22600;48.186;11.526;2023-05-16T06:41:46;22.90;49.90
34640;DHT22;22600;48.186;11.526;2023-05-16T06:44:11;22.90;49.90
34640;DHT22;22600;48.186;11.526;2023-05-16T06:46:37;22.90;49.90
34640;DHT22;22600;48.186;11.526;2023-05-16T06:49:02;22.80;49.80
34640;DHT22;22600;48.186;11.526;2023-05-16T06:51:28;22.90;49.90
34640;DHT22;22600;48.186;11.526;2023-05-16T06:53:54;22.90;49.90
34640;DHT22;22600;48.186;11.526;2023-05-16T06:56:19;22.90;49.90
34640;DHT22;22600;48.186;11.526;2023-05-16T06:58:45;22.90;50.00
34640;DHT22;22600;48.186;11.526;2023-05-16T07:01:11;22.90;50.00
34640;DHT22;22600;48.186;11.526;2023-05-16T07:03:42;22.90;50.00
34640;DHT22;22600;48.186;11.526;2023-05-16T07:06:07;22.90;50.00
34640;DHT22;22600;48.186;11.526;2023-05-16T07:08:33;22.90;50.00
34640;DHT22;22600;48.186;11.526;2023-05-16T07:11:00;22.90;50.00
34640;DHT22;22600;48.186;11.526;2023-05-16T07:13:25;23.00;50.00
34640;DHT22;22600;48.186;11.526;2023-05-16T07:15:51;22.90;50.00
34640;DHT22;22600;48.186;11.526;2023-05-16T07:18:16;22.90;50.00
34640;DHT22;22600;48.186;11.526;2023-05-16T07:20:42;22.80;49.90
34640;DHT22;22600;48.186;11.526;2023-05-16T07:23:07;22.90;50.00
34640;DHT22;22600;48.186;11.526;2023-05-16T07:25:33;22.90;50.00
34640;DHT22;22600;48.186;11.526;2023-05-16T07:27:58;22.90;50.00
34640;DHT22;22600;48.186;11.526;2023-05-16T07:30:25;22.90;50.00
34640;DHT22;22600;48.186;11.526;2023-05-16T07:32:50;22.90;50.00
34640;DHT22;22600;48.186;11.526;2023-05-16T07:35:16;22.90;50.00
34640;DHT22;22600;48.186;11.526;2023-05-16T07:37:41;22.90;50.00
34640;DHT22;22600;48.186;11.526;2023-05-16T07:40:08;22.90;50.70
34640;DHT22;22600;48.186;11.526;2023-05-16T07:42:33;22.90;50.00
34640;DHT22;22600;48.186;11.526;2023-05-16T07:44:59;22.90;50.00
34640;DHT22;22600;48.186;11.526;2023-05-16T07:47:24;22.90;50.00
34640;DHT22;22600;48.186;11.526;2023-05-16T07:49:50;22.90;50.00
34640;DHT22;22600;48.186;11.526;2023-05-16T07:52:15;22.90;50.10
34640;DHT22;22600;48.186;11.526;2023-05-16T07:54:41;22.90;50.10
34640;DHT22;22600;48.186;11.526;2023-05-16T07:57:06;22.90;50.10
34640;DHT22;22600;48.186;11.526;2023-05-16T07:59:32;22.90;50.10
34640;DHT22;22600;48.186;11.526;2023-05-16T08:01:57;23.20;50.20
34640;DHT22;22600;48.186;11.526;2023-05-16T08:04:23;22.90;50.10
34640;DHT22;22600;48.186;11.526;2023-05-16T08:06:48;20.90;49.10
34640;DHT22;22600;48.186;11.526;2023-05-16T08:09:14;22.90;50.10
34640;DHT22;22600;48.186;11.526;2023-05-16T08:11:39;22.90;50.10
34640;DHT22;22600;48.186;11.526;2023-05-16T08:14:05;22.90;50.10
34640;DHT22;22600;48.186;11.526;2023-05-16T08:16:30;22.90;50.10
34640;DHT22;22600;48.186;11.526;2023-05-16T08:18:56;22.90;50.10
34640;DHT22;22600;48.186;11.526;2023-05-16T08:21:21;22.90;50.10
34640;DHT22;22600;48.186;11.526;2023-05-16T08:23:47;23.00;50.20
34640;DHT22;22600;48.186;11.526;2023-05-16T08:26:12;22.90;50.70
34640;DHT22;22600;48.186;11.526;2023-05-16T08:28:38;22.90;50.10
34640;DHT22;22600;48.186;11.526;2023-05-16T08:31:03;22.90;50.10
34640;DHT22;22600;48.186;11.526;2023-05-16T08:33:29;22.90;50.10
34640;DHT22;22600;48.186;11.526;2023-05-16T08:35:54;22.90;50.10
34640;DHT22;22600;48.186;11.526;2023-05-16T08:38:20;22.90;50.10
34640;DHT22;22600;48.186;11.526;2023-05-16T08:40:45;22.90;50.10
34640;DHT22;22600;48.186;11.526;2023-05-16T08:43:11;22.90;50.20
34640;DHT22;22600;48.186;11.526;2023-05-16T08:45:36;22.90;50.20
34640;DHT22;22600;48.186;11.526;2023-05-16T08:48:02;22.90;50.20
34640;DHT22;22600;48.186;11.526;2023-05-16T08:50:29;22.90;50.20
34640;DHT22;22600;48.186;11.526;2023-05-16T08:52:55;22.90;50.20
34640;DHT22;22600;48.186;11.526;2023-05-16T08:55:21;22.90;50.20
34640;DHT22;22600;48.186;11.526;2023-05-16T08:57:48;22.90;50.30
34640;DHT22;22600;48.186;11.526;2023-05-16T09:00:13;22.90;50.30
34640;DHT22;22600;48.186;11.526;2023-05-16T09:02:40;22.90;50.30
34640;DHT22;22600;48.186;11.526;2023-05-16T09:05:07;22.90;50.30
34640;DHT22;22600;48.186;11.526;2023-05-16T09:07:33;22.90;50.30
34640;DHT22;22600;48.186;11.526;2023-05-16T09:09:58;23.00;50.40
34640;DHT22;22600;48.186;11.526;2023-05-16T09:12:24;22.90;50.40
34640;DHT22;22600;48.186;11.526;2023-05-16T09:14:49;23.00;50.50
34640;DHT22;22600;48.186;11.526;2023-05-16T09:17:16;22.60;50.20
34640;DHT22;22600;48.186;11.526;2023-05-16T09:19:42;22.90;50.40
34640;DHT22;22600;48.186;11.526;2023-05-16T09:22:09;23.00;50.50
34640;DHT22;22600;48.186;11.526;2023-05-16T09:24:39;22.90;51.10
34640;DHT22;22600;48.186;11.526;2023-05-16T09:27:11;22.90;50.50
34640;DHT22;22600;48.186;11.526;2023-05-16T09:29:40;22.90;50.60
34640;DHT22;22600;48.186;11.526;2023-05-16T09:32:11;22.90;51.20
34640;DHT22;22600;48.186;11.526;2023-05-16T09:34:37;22.90;50.70
34640;DHT22;22600;48.186;11.526;2023-05-16T09:37:03;22.90;50.60
34640;DHT22;22600;48.186;11.526;2023-05-16T09:39:29;22.90;50.70
34640;DHT22;22600;48.186;11.526;2023-05-16T09:41:54;22.90;50.70
34640;DHT22;22600;48.186;11.526;2023-05-16T09:44:20;22.90;50.70
34640;DHT22;22600;48.186;11.526;2023-05-16T09:46:45;23.00;50.80
34640;DHT22;22600;48.186;11.526;2023-05-16T09:49:11;20.60;49.60
34640;DHT22;22600;48.186;11.526;2023-05-16T09:51:37;22.90;50.80
34640;DHT22;22600;48.186;11.526;2023-05-16T09:54:06;23.00;50.90
34640;DHT22;22600;48.186;11.526;2023-05-16T09:56:31;23.00;50.80
34640;DHT22;22600;48.186;11.526;2023-05-16T09:58:57;23.00;50.90
34640;DHT22;22600;48.186;11.526;2023-05-16T10:01:22;23.00;50.90
34640;DHT22;22600;48.186;11.526;2023-05-16T10:03:48;23.00;50.90
34640;DHT22;22600;48.186;11.526;2023-05-16T10:06:13;22.90;50.90
34640;DHT22;22600;48.186;11.526;2023-05-16T10:08:41;23.00;51.00
34640;DHT22;22600;48.186;11.526;2023-05-16T10:11:06;23.00;51.00
34640;DHT22;22600;48.186;11.526;2023-05-16T10:13:33;23.00;51.00
34640;DHT22;22600;48.186;11.526;2023-05-16T10:16:00;23.00;51.00
34640;DHT22;22600;48.186;11.526;2023-05-16T10:18:30;23.00;51.10
34640;DHT22;22600;48.186;11.526;2023-05-16T10:20:56;23.00;51.10
34640;DHT22;22600;48.186;11.526;2023-05-16T10:23:22;23.00;51.10
34640;DHT22;22600;48.186;11.526;2023-05-16T10:25:49;23.00;51.10
34640;DHT22;22600;48.186;11.526;2023-05-16T10:28:15;23.00;51.10
34640;DHT22;22600;48.186;11.526;2023-05-16T10:30:41;23.00;51.10
34640;DHT22;22600;48.186;11.526;2023-05-16T10:33:15;23.00;51.10
34640;DHT22;22600;48.186;11.526;2023-05-16T10:35:41;23.00;51.10
34640;DHT22;22600;48.186;11.526;2023-05-16T10:38:07;23.00;51.10
34640;DHT22;22600;48.186;11.526;2023-05-16T10:40:34;23.00;51.10
34640;DHT22;22600;48.186;11.526;2023-05-16T10:43:00;23.00;51.10
34640;DHT22;22600;48.186;11.526;2023-05-16T10:45:27;23.00;51.10
34640;DHT22;22600;48.186;11.526;2023-05-16T10:47:53;23.00;51.20
34640;DHT22;22600;48.186;11.526;2023-05-16T10:58:22;23.00;51.20
34640;DHT22;22600;48.186;11.526;2023-05-16T11:00:48;23.00;51.30
34640;DHT22;22600;48.186;11.526;2023-05-16T11:03:23;23.00;51.40
34640;DHT22;22600;48.186;11.526;2023-05-16T11:05:52;23.00;51.50
34640;DHT22;22600;48.186;11.526;2023-05-16T11:08:18;23.00;51.60
34640;DHT22;22600;48.186;11.526;2023-05-16T11:10:43;23.00;51.70
34640;DHT22;22600;48.186;11.526;2023-05-16T11:13:09;23.00;51.80
34640;DHT22;22600;48.186;11.526;2023-05-16T11:15:34;23.00;51.80
34640;DHT22;22600;48.186;11.526;2023-05-16T11:18:04;23.00;51.90
34640;DHT22;22600;48.186;11.526;2023-05-16T11:20:34;23.00;51.80
34640;DHT22;22600;48.186;11.526;2023-05-16T11:23:21;23.00;51.80
34640;DHT22;22600;48.186;11.526;2023-05-16T11:25:55;23.00;51.80
34640;DHT22;22600;48.186;11.526;2023-05-16T11:28:22;23.00;51.80
34640;DHT22;22600;48.186;11.526;2023-05-16T11:30:49;23.00;51.90
34640;DHT22;22600;48.186;11.526;2023-05-16T11:33:16;23.00;51.80
34640;DHT22;22600;48.186;11.526;2023-05-16T11:35:42;23.00;51.80
34640;DHT22;22600;48.186;11.526;2023-05-16T11:38:11;23.00;51.90
34640;DHT22;22600;48.186;11.526;2023-05-16T11:40:40;23.00;51.80
34640;DHT22;22600;48.186;11.526;2023-05-16T11:43:06;23.00;51.80
34640;DHT22;22600;48.186;11.526;2023-05-16T11:45:31;23.10;51.90
34640;DHT22;22600;48.186;11.526;2023-05-16T11:48:00;23.00;51.80
34640;DHT22;22600;48.186;11.526;2023-05-16T11:50:26;23.00;51.80
34640;DHT22;22600;48.186;11.526;2023-05-16T11:52:52;23.00;51.80
34640;DHT22;22600;48.186;11.526;2023-05-16T11:55:21;23.00;51.70
34640;DHT22;22600;48.186;11.526;2023-05-16T11:57:48;23.00;51.70
34640;DHT22;22600;48.186;11.526;2023-05-16T12:00:15;23.00;51.60
34640;DHT22;22600;48.186;11.526;2023-05-16T12:02:43;23.00;51.70
34640;DHT22;22600;48.186;11.526;2023-05-16T12:05:08;23.00;51.60
34640;DHT22;22600;48.186;11.526;2023-05-16T12:07:34;23.00;51.60
34640;DHT22;22600;48.186;11.526;2023-05-16T12:10:10;23.00;51.60
34640;DHT22;22600;48.186;11.526;2023-05-16T12:12:38;23.00;51.60
34640;DHT22;22600;48.186;11.526;2023-05-16T12:15:04;23.00;51.60
34640;DHT22;22600;48.186;11.526;2023-05-16T12:17:31;23.00;51.60
34640;DHT22;22600;48.186;11.526;2023-05-16T12:19:57;23.00;51.60
34640;DHT22;22600;48.186;11.526;2023-05-16T12:22:23;23.00;51.60
34640;DHT22;22600;48.186;11.526;2023-05-16T12:24:50;22.90;51.60
34640;DHT22;22600;48.186;11.526;2023-05-16T12:27:21;23.00;51.60
34640;DHT22;22600;48.186;11.526;2023-05-16T12:29:47;23.00;51.60
34640;DHT22;22600;48.186;11.526;2023-05-16T12:32:16;23.00;52.20
34640;DHT22;22600;48.186;11.526;2023-05-16T12:34:47;23.00;51.60
34640;DHT22;22600;48.186;11.526;2023-05-16T12:37:13;23.00;51.60
34640;DHT22;22600;48.186;11.526;2023-05-16T12:39:38;23.00;51.60
34640;DHT22;22600;48.186;11.526;2023-05-16T12:42:04;23.00;51.60
34640;DHT22;22600;48.186;11.526;2023-05-16T12:44:30;23.00;51.60
34640;DHT22;22600;48.186;11.526;2023-05-16T12:46:56;23.00;51.60
34640;DHT22;22600;48.186;11.526;2023-05-16T12:49:22;23.00;51.60
34640;DHT22;22600;48.186;11.526;2023-05-16T12:51:49;23.00;51.60
34640;DHT22;22600;48.186;11.526;2023-05-16T12:54:15;23.00;51.60
34640;DHT22;22600;48.186;11.526;2023-05-16T12:56:41;23.00;51.60
34640;DHT22;22600;48.186;11.526;2023-05-16T12:59:06;23.00;51.60
34640;DHT22;22600;48.186;11.526;2023-05-16T13:01:33;23.10;51.70
34640;DHT22;22600;48.186;11.526;2023-05-16T13:03:59;23.00;51.60
34640;DHT22;22600;48.186;11.526;2023-05-16T13:06:25;23.00;51.60
34640;DHT22;22600;48.186;11.526;2023-05-16T13:08:51;23.00;51.60
34640;DHT22;22600;48.186;11.526;2023-05-16T13:11:16;23.00;51.60
34640;DHT22;22600;48.186;11.526;2023-05-16T13:13:43;23.00;51.60
34640;DHT22;22600;48.186;11.526;2023-05-16T13:16:08;23.00;51.60
34640;DHT22;22600;48.186;11.526;2023-05-16T13:18:34;23.00;51.60
34640;DHT22;22600;48.186;11.526;2023-05-16T13:21:00;23.00;51.60
34640;DHT22;22600;48.186;11.526;2023-05-16T13:23:26;23.00;51.60
34640;DHT22;22600;48.186;11.526;2023-05-16T13:25:52;23.00;51.60
34640;DHT22;22600;48.186;11.526;2023-05-16T13:28:17;23.40;51.90
34640;DHT22;22600;48.186;11.526;2023-05-16T13:30:43;23.00;51.80
34640;DHT22;22600;48.186;11.526;2023-05-16T13:33:08;22.90;51.80
34640;DHT22;22600;48.186;11.526;2023-05-16T13:35:34;23.00;51.80
34640;DHT22;22600;48.186;11.526;2023-05-16T13:37:59;23.00;51.80
34640;DHT22;22600;48.186;11.526;2023-05-16T13:40:25;23.20;52.00
34640;DHT22;22600;48.186;11.526;2023-05-16T13:42:52;23.00;51.80
34640;DHT22;22600;48.186;11.526;2023-05-16T13:45:17;23.00;51.80
34640;DHT22;22600;48.186;11.526;2023-05-16T13:47:43;23.00;51.80
34640;DHT22;22600;48.186;11.526;2023-05-16T13:50:08;23.00;51.80
34640;DHT22;22600;48.186;11.526;2023-05-16T13:52:35;23.00;51.90
34640;DHT22;22600;48.186;11.526;2023-05-16T13:55:01;23.00;51.90
34640;DHT22;22600;48.186;11.526;2023-05-16T13:57:27;23.00;52.00
34640;DHT22;22600;48.186;11.526;2023-05-16T13:59:53;23.00;52.10
34640;DHT22;22600;48.186;11.526;2023-05-16T14:02:19;23.00;52.20
34640;DHT22;22600;48.186;11.526;2023-05-16T14:04:44;23.00;52.10
34640;DHT22;22600;48.186;11.526;2023-05-16T14:07:10;23.00;52.10
34640;DHT22;22600;48.186;11.526;2023-05-16T14:09:35;23.00;52.10
34640;DHT22;22600;48.186;11.526;2023-05-16T14:12:06;23.00;52.20
34640;DHT22;22600;48.186;11.526;2023-05-16T14:14:32;23.00;52.20
34640;DHT22;22600;48.186;11.526;2023-05-16T14:16:58;23.00;52.20
34640;DHT22;22600;48.186;11.526;2023-05-16T14:19:23;23.00;52.10
34640;DHT22;22600;48.186;11.526;2023-05-16T14:21:49;23.00;52.10
34640;DHT22;22600;48.186;11.526;2023-05-16T14:24:14;23.00;52.10
34640;DHT22;22600;48.186;11.526;2023-05-16T14:26:40;23.00;52.10
34640;DHT22;22600;48.186;11.526;2023-05-16T14:29:05;23.00;52.10
34640;DHT22;22600;48.186;11.526;2023-05-16T14:31:31;23.00;52.10
34640;DHT22;22600;48.186;11.526;2023-05-16T14:33:57;23.10;52.30
34640;DHT22;22600;48.186;11.526;2023-05-16T14:36:23;23.00;52.30
34640;DHT22;22600;48.186;11.526;2023-05-16T14:38:49;23.00;52.30
34640;DHT22;22600;48.186;11.526;2023-05-16T14:41:14;23.10;52.40
34640;DHT22;22600;48.186;11.526;2023-05-16T14:43:40;23.00;52.40
34640;DHT22;22600;48.186;11.526;2023-05-16T14:46:05;23.00;52.50
34640;DHT22;22600;48.186;11.526;2023-05-16T14:48:31;23.00;52.40
34640;DHT22;22600;48.186;11.526;2023-05-16T14:50:57;20.40;51.10
34640;DHT22;22600;48.186;11.526;2023-05-16T14:53:23;23.00;52.40
34640;DHT22;22600;48.186;11.526;2023-05-16T14:55:48;23.10;52.50
34640;DHT22;22600;48.186;11.526;2023-05-16T14:58:14;23.00;52.50
34640;DHT22;22600;48.186;11.526;2023-05-16T15:00:40;23.00;52.60
34640;DHT22;22600;48.186;11.526;2023-05-16T15:03:05;23.10;52.60
34640;DHT22;22600;48.186;11.526;2023-05-16T15:05:31;23.00;52.60
34640;DHT22;22600;48.186;11.526;2023-05-16T15:07:56;23.10;52.70
34640;DHT22;22600;48.186;11.526;2023-05-16T15:10:22;23.10;52.70
34640;DHT22;22600;48.186;11.526;2023-05-16T15:12:47;23.10;52.80
34640;DHT22;22600;48.186;11.526;2023-05-16T15:15:13;23.00;52.80
34640;DHT22;22600;48.186;11.526;2023-05-16T15:17:39;23.10;52.80
34640;DHT22;22600;48.186;11.526;2023-05-16T15:20:06;26.70;54.80
34640;DHT22;22600;48.186;11.526;2023-05-16T15:22:31;23.00;52.70
34640;DHT22;22600;48.186;11.526;2023-05-16T15:24:57;23.10;52.80
34640;DHT22;22600;48.186;11.526;2023-05-16T15:27:23;23.10;52.80
34640;DHT22;22600;48.186;11.526;2023-05-16T15:29:48;23.10;52.80
34640;DHT22;22600;48.186;11.526;2023-05-16T15:32:13;23.10;52.90